sensor_id;sensor_type;location;lat;lon;timestamp;pressure;altitude;pressure_sealevel;temperature;humidity
23899;BME280;20544;50.018;20.010;2023-05-25T00:00:18;99284.06;;;13.81;100.00
23899;BME280;20544;50.018;20.010;2023-05-25T00:03:38;99282.41;;;13.80;100.00
23899;BME280;20544;50.018;20.010;2023-05-25T00:06:55;99278.94;;;13.80;100.00
23899;BME280;20544;50.018;20.010;2023-05-25T00:10:12;99287.09;;;13.78;100.00
23899;BME280;20544;50.018;20.010;2023-05-25T00:13:30;99278.94;;;13.80;100.00
23899;BME280;20544;50.018;20.010;2023-05-25T00:16:47;99285.08;;;13.80;100.00
23899;BME280;20544;50.018;20.010;2023-05-25T00:20:05;99290.21;;;13.82;100.00
23899;BME280;20544;50.018;20.010;2023-05-25T00:23:25;99289.00;;;13.84;100.00
23899;BME280;20544;50.018;20.010;2023-05-25T00:26:42;99292.06;;;13.81;100.00
23899;BME280;20544;50.018;20.010;2023-05-25T00:30:00;99291.87;;;13.83;100.00
23899;BME280;20544;50.018;20.010;2023-05-25T00:33:18;99291.05;;;13.82;100.00
23899;BME280;20544;50.018;20.010;2023-05-25T00:36:36;99292.06;;;13.81;100.00
23899;BME280;20544;50.018;20.010;2023-05-25T00:39:55;99296.30;;;13.75;100.00
23899;BME280;20544;50.018;20.010;2023-05-25T00:43:13;99294.67;;;13.74;100.00
23899;BME280;20544;50.018;20.010;2023-05-25T00:46:31;99302.03;;;13.72;100.00
23899;BME280;20544;50.018;20.010;2023-05-25T00:49:51;99297.45;;;13.66;100.00
23899;BME280;20544;50.018;20.010;2023-05-25T00:53:07;99297.66;;;13.65;100.00
23899;BME280;20544;50.018;20.010;2023-05-25T00:56:28;99300.68;;;13.62;100.00
23899;BME280;20544;50.018;20.010;2023-05-25T00:59:49;99300.88;;;13.60;100.00
23899;BME280;20544;50.018;20.010;2023-05-25T01:03:11;99301.88;;;13.59;100.00
23899;BME280;20544;50.018;20.010;2023-05-25T01:06:34;99305.00;;;13.63;100.00
23899;BME280;20544;50.018;20.010;2023-05-25T01:09:55;99306.66;;;13.64;100.00
23899;BME280;20544;50.018;20.010;2023-05-25T01:13:15;99304.80;;;13.64;100.00
23899;BME280;20544;50.018;20.010;2023-05-25T01:16:33;99300.31;;;13.65;100.00
23899;BME280;20544;50.018;20.010;2023-05-25T01:19:51;99294.73;;;13.59;100.00
23899;BME280;20544;50.018;20.010;2023-05-25T01:23:14;99289.12;;;13.54;100.00
23899;BME280;20544;50.018;20.010;2023-05-25T01:26:36;99295.20;;;13.48;100.00
23899;BME280;20544;50.018;20.010;2023-05-25T01:30:00;99302.02;;;13.51;100.00
23899;BME280;20544;50.018;20.010;2023-05-25T01:33:19;99300.36;;;13.50;100.00
23899;BME280;20544;50.018;20.010;2023-05-25T01:36:37;99300.63;;;13.55;100.00
23899;BME280;20544;50.018;20.010;2023-05-25T01:39:55;99303.54;;;13.60;100.00
23899;BME280;20544;50.018;20.010;2023-05-25T01:43:15;99298.86;;;13.62;100.00
23899;BME280;20544;50.018;20.010;2023-05-25T01:46:36;99302.89;;;13.58;100.00
23899;BME280;20544;50.018;20.010;2023-05-25T01:49:58;99308.06;;;13.59;100.00
23899;BME280;20544;50.018;20.010;2023-05-25T01:53:20;99308.88;;;13.60;100.00
23899;BME280;20544;50.018;20.010;2023-05-25T01:56:41;99299.87;;;13.61;100.00
23899;BME280;20544;50.018;20.010;2023-05-25T02:00:01;99306.66;;;13.64;100.00
23899;BME280;20544;50.018;20.010;2023-05-25T02:03:21;99299.41;;;13.57;100.00
23899;BME280;20544;50.018;20.010;2023-05-25T02:06:39;99296.50;;;13.52;100.00
23899;BME280;20544;50.018;20.010;2023-05-25T02:09:57;99292.98;;;13.52;100.00
23899;BME280;20544;50.018;20.010;2023-05-25T02:13:14;99298.16;;;13.53;100.00
23899;BME280;20544;50.018;20.010;2023-05-25T02:16:32;99298.57;;;13.57;100.00
23899;BME280;20544;50.018;20.010;2023-05-25T02:19:49;99295.09;;;13.56;100.00
23899;BME280;20544;50.018;20.010;2023-05-25T02:23:07;99299.78;;;13.54;100.00
23899;BME280;20544;50.018;20.010;2023-05-25T02:26:27;99288.30;;;13.54;100.00
23899;BME280;20544;50.018;20.010;2023-05-25T02:29:45;99288.30;;;13.54;100.00
23899;BME280;20544;50.018;20.010;2023-05-25T02:33:03;99285.13;;;13.43;100.00
23899;BME280;20544;50.018;20.010;2023-05-25T02:36:22;99285.58;;;13.47;100.00
23899;BME280;20544;50.018;20.010;2023-05-25T02:39:40;99281.36;;;13.38;100.00
23899;BME280;20544;50.018;20.010;2023-05-25T02:42:58;99282.02;;;13.40;100.00
23899;BME280;20544;50.018;20.010;2023-05-25T02:46:16;99275.84;;;13.39;100.00
23899;BME280;20544;50.018;20.010;2023-05-25T02:49:34;99288.87;;;13.34;100.00
23899;BME280;20544;50.018;20.010;2023-05-25T02:52:51;99277.89;;;13.37;100.00
23899;BME280;20544;50.018;20.010;2023-05-25T02:56:09;99280.71;;;13.36;100.00
23899;BME280;20544;50.018;20.010;2023-05-25T02:59:26;99283.55;;;13.34;100.00
23899;BME280;20544;50.018;20.010;2023-05-25T03:02:45;99280.55;;;13.37;100.00
23899;BME280;20544;50.018;20.010;2023-05-25T03:06:02;99274.93;;;13.32;100.00
23899;BME280;20544;50.018;20.010;2023-05-25T03:09:23;99282.34;;;13.37;100.00
23899;BME280;20544;50.018;20.010;2023-05-25T03:12:41;99282.20;;;13.38;100.00
23899;BME280;20544;50.018;20.010;2023-05-25T03:15:58;99275.02;;;13.39;100.00
23899;BME280;20544;50.018;20.010;2023-05-25T03:19:16;99281.17;;;13.39;100.00
23899;BME280;20544;50.018;20.010;2023-05-25T03:22:34;99291.02;;;13.39;100.00
23899;BME280;20544;50.018;20.010;2023-05-25T03:25:51;99286.86;;;13.36;100.00
23899;BME280;20544;50.018;20.010;2023-05-25T03:29:08;99293.00;;;13.37;100.00
23899;BME280;20544;50.018;20.010;2023-05-25T03:32:26;99301.38;;;13.34;100.00
23899;BME280;20544;50.018;20.010;2023-05-25T03:35:43;99307.25;;;13.29;100.00
23899;BME280;20544;50.018;20.010;2023-05-25T03:39:01;99306.91;;;13.32;100.00
23899;BME280;20544;50.018;20.010;2023-05-25T03:42:18;99306.05;;;13.32;100.00
23899;BME280;20544;50.018;20.010;2023-05-25T03:45:35;99308.91;;;13.30;100.00
23899;BME280;20544;50.018;20.010;2023-05-25T03:48:52;99308.10;;;13.30;100.00
23899;BME280;20544;50.018;20.010;2023-05-25T03:52:10;99307.25;;;13.29;100.00
23899;BME280;20544;50.018;20.010;2023-05-25T03:55:27;99308.10;;;13.30;100.00
23899;BME280;20544;50.018;20.010;2023-05-25T03:58:46;99315.70;;;13.33;100.00
23899;BME280;20544;50.018;20.010;2023-05-25T04:02:03;99320.84;;;13.34;100.00
23899;BME280;20544;50.018;20.010;2023-05-25T04:05:21;99331.33;;;13.36;100.00
23899;BME280;20544;50.018;20.010;2023-05-25T04:08:38;99320.22;;;13.32;100.00
23899;BME280;20544;50.018;20.010;2023-05-25T04:11:56;99326.36;;;13.33;100.00
23899;BME280;20544;50.018;20.010;2023-05-25T04:15:16;99326.36;;;13.33;100.00
23899;BME280;20544;50.018;20.010;2023-05-25T04:18:42;99325.55;;;13.32;100.00
23899;BME280;20544;50.018;20.010;2023-05-25T04:22:00;99331.69;;;13.33;100.00
23899;BME280;20544;50.018;20.010;2023-05-25T04:25:18;99326.81;;;13.36;100.00
23899;BME280;20544;50.018;20.010;2023-05-25T04:28:38;99334.16;;;13.34;100.00
23899;BME280;20544;50.018;20.010;2023-05-25T04:32:12;99334.00;;;13.36;100.00
23899;BME280;20544;50.018;20.010;2023-05-25T04:35:33;99341.63;;;13.39;100.00
23899;BME280;20544;50.018;20.010;2023-05-25T04:38:54;99344.00;;;13.34;100.00
23899;BME280;20544;50.018;20.010;2023-05-25T04:42:21;99350.98;;;13.35;100.00
23899;BME280;20544;50.018;20.010;2023-05-25T04:45:47;99345.95;;;13.40;100.00
23899;BME280;20544;50.018;20.010;2023-05-25T04:49:10;99346.86;;;13.32;100.00
23899;BME280;20544;50.018;20.010;2023-05-25T04:52:28;99346.02;;;13.32;100.00
23899;BME280;20544;50.018;20.010;2023-05-25T04:55:44;99346.47;;;13.35;100.00
23899;BME280;20544;50.018;20.010;2023-05-25T04:59:05;99357.13;;;13.35;100.00
23899;BME280;20544;50.018;20.010;2023-05-25T05:02:31;99361.80;;;13.33;100.00
23899;BME280;20544;50.018;20.010;2023-05-25T05:05:56;99367.78;;;13.35;100.00
23899;BME280;20544;50.018;20.010;2023-05-25T05:09:16;99374.31;;;13.33;100.00
23899;BME280;20544;50.018;20.010;2023-05-25T05:12:44;99367.52;;;13.30;100.00
23899;BME280;20544;50.018;20.010;2023-05-25T05:16:01;99381.49;;;13.32;100.00
23899;BME280;20544;50.018;20.010;2023-05-25T05:19:33;99384.51;;;13.29;100.00
23899;BME280;20544;50.018;20.010;2023-05-25T05:23:05;99378.44;;;13.35;100.00
23899;BME280;20544;50.018;20.010;2023-05-25T05:26:26;99381.19;;;13.27;100.00
23899;BME280;20544;50.018;20.010;2023-05-25T05:29:55;99379.18;;;13.29;100.00
23899;BME280;20544;50.018;20.010;2023-05-25T05:33:18;99385.97;;;13.32;100.00
23899;BME280;20544;50.018;20.010;2023-05-25T05:36:42;99386.81;;;13.32;100.00
23899;BME280;20544;50.018;20.010;2023-05-25T05:40:07;99398.94;;;13.35;100.00
23899;BME280;20544;50.018;20.010;2023-05-25T05:43:27;99399.10;;;13.33;100.00
23899;BME280;20544;50.018;20.010;2023-05-25T05:46:57;99398.94;;;13.35;100.00
23899;BME280;20544;50.018;20.010;2023-05-25T05:50:19;99399.56;;;13.37;100.00
23899;BME280;20544;50.018;20.010;2023-05-25T05:53:38;99395.92;;;13.38;100.00
23899;BME280;20544;50.018;20.010;2023-05-25T05:56:55;99398.94;;;13.35;100.00
23899;BME280;20544;50.018;20.010;2023-05-25T06:00:28;99404.43;;;13.33;100.00
23899;BME280;20544;50.018;20.010;2023-05-25T06:04:01;99397.64;;;13.31;100.00
23899;BME280;20544;50.018;20.010;2023-05-25T06:07:26;99397.83;;;13.29;100.00
23899;BME280;20544;50.018;20.010;2023-05-25T06:10:56;99407.94;;;13.34;100.00
23899;BME280;20544;50.018;20.010;2023-05-25T06:14:14;99415.09;;;13.33;100.00
23899;BME280;20544;50.018;20.010;2023-05-25T06:17:41;99426.08;;;13.38;100.00
23899;BME280;20544;50.018;20.010;2023-05-25T06:21:00;99424.69;;;13.42;100.00
23899;BME280;20544;50.018;20.010;2023-05-25T06:24:22;99416.14;;;13.47;100.00
23899;BME280;20544;50.018;20.010;2023-05-25T06:27:44;99420.44;;;13.48;100.00
23899;BME280;20544;50.018;20.010;2023-05-25T06:31:03;99427.27;;;13.51;100.00
23899;BME280;20544;50.018;20.010;2023-05-25T06:34:21;99433.94;;;13.62;100.00
23899;BME280;20544;50.018;20.010;2023-05-25T06:37:42;99435.86;;;13.68;100.00
23899;BME280;20544;50.018;20.010;2023-05-25T06:41:02;99434.56;;;13.79;100.00
23899;BME280;20544;50.018;20.010;2023-05-25T06:44:23;99444.29;;;13.86;100.00
23899;BME280;20544;50.018;20.010;2023-05-25T06:47:55;99446.02;;;13.94;100.00
23899;BME280;20544;50.018;20.010;2023-05-25T06:51:29;99442.27;;;13.88;100.00
23899;BME280;20544;50.018;20.010;2023-05-25T06:54:47;99445.66;;;13.97;100.00
23899;BME280;20544;50.018;20.010;2023-05-25T06:58:05;99441.07;;;13.91;100.00
23899;BME280;20544;50.018;20.010;2023-05-25T07:01:23;99441.63;;;13.86;100.00
23899;BME280;20544;50.018;20.010;2023-05-25T07:04:51;99454.59;;;13.89;100.00
23899;BME280;20544;50.018;20.010;2023-05-25T07:08:08;99467.93;;;13.89;100.00
23899;BME280;20544;50.018;20.010;2023-05-25T07:11:26;99454.95;;;13.86;100.00
23899;BME280;20544;50.018;20.010;2023-05-25T07:14:44;99462.59;;;13.89;100.00
23899;BME280;20544;50.018;20.010;2023-05-25T07:18:06;99462.23;;;13.78;100.00
23899;BME280;20544;50.018;20.010;2023-05-25T07:21:25;99463.70;;;13.80;100.00
23899;BME280;20544;50.018;20.010;2023-05-25T07:24:47;99466.30;;;13.73;100.00
23899;BME280;20544;50.018;20.010;2023-05-25T07:28:07;99471.52;;;13.67;100.00
23899;BME280;20544;50.018;20.010;2023-05-25T07:31:34;99467.31;;;13.57;100.00
23899;BME280;20544;50.018;20.010;2023-05-25T07:34:58;99460.13;;;13.58;100.00
23899;BME280;20544;50.018;20.010;2023-05-25T07:38:19;99465.00;;;13.54;100.00
23899;BME280;20544;50.018;20.010;2023-05-25T07:41:39;99458.66;;;13.55;100.00
23899;BME280;20544;50.018;20.010;2023-05-25T07:45:05;99458.31;;;13.58;100.00
23899;BME280;20544;50.018;20.010;2023-05-25T07:48:42;99464.84;;;13.56;100.00
23899;BME280;20544;50.018;20.010;2023-05-25T07:51:58;99455.07;;;13.63;100.00
23899;BME280;20544;50.018;20.010;2023-05-25T07:55:16;99468.23;;;13.65;100.00
23899;BME280;20544;50.018;20.010;2023-05-25T07:58:33;99474.64;;;13.70;100.00
23899;BME280;20544;50.018;20.010;2023-05-25T08:01:50;99468.31;;;13.71;100.00
23899;BME280;20544;50.018;20.010;2023-05-25T08:05:08;99461.97;;;13.72;100.00
23899;BME280;20544;50.018;20.010;2023-05-25T08:08:25;99470.42;;;13.76;100.00
23899;BME280;20544;50.018;20.010;2023-05-25T08:11:42;99467.77;;;13.76;100.00
23899;BME280;20544;50.018;20.010;2023-05-25T08:15:01;99471.05;;;13.78;100.00
23899;BME280;20544;50.018;20.010;2023-05-25T08:18:19;99462.89;;;13.80;100.00
23899;BME280;20544;50.018;20.010;2023-05-25T08:21:36;99464.99;;;13.69;100.00
23899;BME280;20544;50.018;20.010;2023-05-25T08:24:53;99471.63;;;13.73;100.00
23899;BME280;20544;50.018;20.010;2023-05-25T08:28:12;99462.63;;;13.74;100.00
23899;BME280;20544;50.018;20.010;2023-05-25T08:31:29;99474.75;;;13.77;100.00
23899;BME280;20544;50.018;20.010;2023-05-25T08:34:46;99482.36;;;13.80;100.00
23899;BME280;20544;50.018;20.010;2023-05-25T08:38:04;99478.42;;;13.76;100.00
23899;BME280;20544;50.018;20.010;2023-05-25T08:41:20;99474.91;;;13.75;100.00
23899;BME280;20544;50.018;20.010;2023-05-25T08:44:38;99474.17;;;13.82;100.00
23899;BME280;20544;50.018;20.010;2023-05-25T08:47:57;99466.89;;;13.90;100.00
23899;BME280;20544;50.018;20.010;2023-05-25T08:51:15;99461.00;;;13.95;100.00
23899;BME280;20544;50.018;20.010;2023-05-25T08:54:35;99461.85;;;13.96;100.00
23899;BME280;20544;50.018;20.010;2023-05-25T08:57:56;99469.10;;;14.02;100.00
23899;BME280;20544;50.018;20.010;2023-05-25T09:01:17;99465.66;;;14.08;100.00
23899;BME280;20544;50.018;20.010;2023-05-25T09:04:35;99479.64;;;14.10;100.00
23899;BME280;20544;50.018;20.010;2023-05-25T09:07:53;99476.52;;;14.06;100.00
23899;BME280;20544;50.018;20.010;2023-05-25T09:11:11;99467.05;;;14.04;100.00
23899;BME280;20544;50.018;20.010;2023-05-25T09:14:29;99477.63;;;14.12;100.00
23899;BME280;20544;50.018;20.010;2023-05-25T09:17:46;99471.98;;;14.22;100.00
23899;BME280;20544;50.018;20.010;2023-05-25T09:21:04;99479.69;;;14.32;100.00
23899;BME280;20544;50.018;20.010;2023-05-25T09:24:21;99474.97;;;14.34;100.00
23899;BME280;20544;50.018;20.010;2023-05-25T09:27:38;99484.38;;;14.30;100.00
23899;BME280;20544;50.018;20.010;2023-05-25T09:30:55;99486.29;;;14.36;100.00
23899;BME280;20544;50.018;20.010;2023-05-25T09:34:14;99486.20;;;14.29;100.00
23899;BME280;20544;50.018;20.010;2023-05-25T09:37:30;99489.20;;;14.19;100.00
23899;BME280;20544;50.018;20.010;2023-05-25T09:40:47;99494.80;;;14.24;100.00
23899;BME280;20544;50.018;20.010;2023-05-25T09:44:05;99487.24;;;14.28;100.00
23899;BME280;20544;50.018;20.010;2023-05-25T09:47:22;99491.98;;;14.33;100.00
23899;BME280;20544;50.018;20.010;2023-05-25T09:50:38;99491.38;;;14.31;100.00
23899;BME280;20544;50.018;20.010;2023-05-25T09:53:57;99480.76;;;14.37;100.00
23899;BME280;20544;50.018;20.010;2023-05-25T09:57:13;99496.01;;;14.44;100.00
23899;BME280;20544;50.018;20.010;2023-05-25T10:00:34;99483.48;;;14.44;100.00
23899;BME280;20544;50.018;20.010;2023-05-25T10:03:49;99484.52;;;14.43;100.00
23899;BME280;20544;50.018;20.010;2023-05-25T10:07:09;99480.70;;;14.52;100.00
23899;BME280;20544;50.018;20.010;2023-05-25T10:10:26;99481.34;;;14.54;100.00
23899;BME280;20544;50.018;20.010;2023-05-25T10:13:45;99478.67;;;14.54;100.00
23899;BME280;20544;50.018;20.010;2023-05-25T10:17:05;99487.13;;;14.58;100.00
23899;BME280;20544;50.018;20.010;2023-05-25T10:20:22;99479.38;;;14.63;100.00
23899;BME280;20544;50.018;20.010;2023-05-25T10:23:44;99477.80;;;14.69;100.00
23899;BME280;20544;50.018;20.010;2023-05-25T10:27:04;99475.33;;;14.67;100.00
23899;BME280;20544;50.018;20.010;2023-05-25T10:30:25;99472.29;;;14.70;100.00
23899;BME280;20544;50.018;20.010;2023-05-25T10:33:42;99473.02;;;14.64;100.00
23899;BME280;20544;50.018;20.010;2023-05-25T10:37:00;99476.90;;;14.62;100.00
23899;BME280;20544;50.018;20.010;2023-05-25T10:40:19;99473.91;;;14.71;100.00
23899;BME280;20544;50.018;20.010;2023-05-25T10:43:37;99479.53;;;14.77;100.00
23899;BME280;20544;50.018;20.010;2023-05-25T10:46:54;99469.66;;;14.77;100.00
23899;BME280;20544;50.018;20.010;2023-05-25T10:50:23;99473.14;;;14.78;100.00
23899;BME280;20544;50.018;20.010;2023-05-25T10:53:45;99471.32;;;14.78;100.00
23899;BME280;20544;50.018;20.010;2023-05-25T10:57:12;99475.64;;;14.79;100.00
23899;BME280;20544;50.018;20.010;2023-05-25T11:00:33;99479.33;;;14.78;100.00
23899;BME280;20544;50.018;20.010;2023-05-25T11:03:54;99478.31;;;14.79;100.00
23899;BME280;20544;50.018;20.010;2023-05-25T11:07:16;99480.39;;;14.84;100.00
23899;BME280;20544;50.018;20.010;2023-05-25T11:10:53;99485.36;;;14.87;100.00
23899;BME280;20544;50.018;20.010;2023-05-25T11:14:20;99475.30;;;14.89;100.00
23899;BME280;20544;50.018;20.010;2023-05-25T11:17:44;99475.69;;;14.86;100.00
23899;BME280;20544;50.018;20.010;2023-05-25T11:21:20;99473.91;;;14.93;100.00
23899;BME280;20544;50.018;20.010;2023-05-25T11:24:51;99474.14;;;14.98;100.00
23899;BME280;20544;50.018;20.010;2023-05-25T11:28:09;99471.08;;;15.01;100.00
23899;BME280;20544;50.018;20.010;2023-05-25T11:31:31;99471.92;;;15.02;100.00
23899;BME280;20544;50.018;20.010;2023-05-25T11:34:50;99472.48;;;14.97;100.00
23899;BME280;20544;50.018;20.010;2023-05-25T11:38:10;99463.91;;;15.02;100.00
23899;BME280;20544;50.018;20.010;2023-05-25T11:41:27;99473.81;;;15.08;100.00
23899;BME280;20544;50.018;20.010;2023-05-25T11:44:45;99461.91;;;15.11;100.00
23899;BME280;20544;50.018;20.010;2023-05-25T11:48:01;99465.45;;;15.18;100.00
23899;BME280;20544;50.018;20.010;2023-05-25T11:51:21;99469.38;;;15.22;100.00
23899;BME280;20544;50.018;20.010;2023-05-25T11:54:39;99462.81;;;15.25;100.00
23899;BME280;20544;50.018;20.010;2023-05-25T11:58:00;99465.92;;;15.28;100.00
23899;BME280;20544;50.018;20.010;2023-05-25T12:01:17;99460.59;;;15.28;100.00
23899;BME280;20544;50.018;20.010;2023-05-25T12:04:34;99463.69;;;15.32;100.00
23899;BME280;20544;50.018;20.010;2023-05-25T12:07:51;99454.45;;;15.34;100.00
23899;BME280;20544;50.018;20.010;2023-05-25T12:11:07;99464.33;;;15.34;100.00
23899;BME280;20544;50.018;20.010;2023-05-25T12:14:24;99457.56;;;15.38;100.00
23899;BME280;20544;50.018;20.010;2023-05-25T12:17:44;99458.61;;;15.44;100.00
23899;BME280;20544;50.018;20.010;2023-05-25T12:21:02;99456.77;;;15.44;100.00
23899;BME280;20544;50.018;20.010;2023-05-25T12:24:19;99466.05;;;15.48;100.00
23899;BME280;20544;50.018;20.010;2023-05-25T12:27:36;99460.31;;;15.51;100.00
23899;BME280;20544;50.018;20.010;2023-05-25T12:30:53;99469.56;;;15.49;100.00
23899;BME280;20544;50.018;20.010;2023-05-25T12:34:11;99466.02;;;15.42;100.00
23899;BME280;20544;50.018;20.010;2023-05-25T12:37:29;99465.61;;;15.45;100.00
23899;BME280;20544;50.018;20.010;2023-05-25T12:40:45;99463.57;;;15.47;100.00
23899;BME280;20544;50.018;20.010;2023-05-25T12:44:02;99464.21;;;15.49;100.00
23899;BME280;20544;50.018;20.010;2023-05-25T12:47:20;99463.38;;;15.48;100.00
23899;BME280;20544;50.018;20.010;2023-05-25T12:50:38;99455.76;;;15.45;100.00
23899;BME280;20544;50.018;20.010;2023-05-25T12:54:10;99455.55;;;15.47;100.00
23899;BME280;20544;50.018;20.010;2023-05-25T12:57:34;99440.16;;;15.49;100.00
23899;BME280;20544;50.018;20.010;2023-05-25T13:00:58;99439.59;;;15.60;100.00
23899;BME280;20544;50.018;20.010;2023-05-25T13:04:16;99441.47;;;15.66;100.00
23899;BME280;20544;50.018;20.010;2023-05-25T13:07:32;99446.99;;;15.65;100.00
23899;BME280;20544;50.018;20.010;2023-05-25T13:10:50;99435.26;;;15.59;100.00
23899;BME280;20544;50.018;20.010;2023-05-25T13:14:07;99437.75;;;15.67;100.00
23899;BME280;20544;50.018;20.010;2023-05-25T13:17:23;99433.02;;;15.63;100.00
23899;BME280;20544;50.018;20.010;2023-05-25T13:20:40;99427.84;;;15.61;100.00
23899;BME280;20544;50.018;20.010;2023-05-25T13:23:58;99420.46;;;15.63;100.00
23899;BME280;20544;50.018;20.010;2023-05-25T13:27:16;99427.84;;;15.61;100.00
23899;BME280;20544;50.018;20.010;2023-05-25T13:30:33;99423.30;;;15.55;100.00
23899;BME280;20544;50.018;20.010;2023-05-25T13:33:56;99423.13;;;15.63;100.00
23899;BME280;20544;50.018;20.010;2023-05-25T13:37:12;99423.36;;;15.68;100.00
23899;BME280;20544;50.018;20.010;2023-05-25T13:40:29;99419.28;;;15.73;100.00
23899;BME280;20544;50.018;20.010;2023-05-25T13:43:46;99417.78;;;15.63;100.00
23899;BME280;20544;50.018;20.010;2023-05-25T13:47:02;99416.36;;;15.67;100.00
23899;BME280;20544;50.018;20.010;2023-05-25T13:50:19;99415.38;;;15.75;100.00
23899;BME280;20544;50.018;20.010;2023-05-25T13:53:38;99419.34;;;15.86;100.00
23899;BME280;20544;50.018;20.010;2023-05-25T13:56:57;99415.22;;;15.83;100.00
23899;BME280;20544;50.018;20.010;2023-05-25T14:00:16;99412.75;;;15.89;100.00
23899;BME280;20544;50.018;20.010;2023-05-25T14:03:34;99413.73;;;15.81;100.00
23899;BME280;20544;50.018;20.010;2023-05-25T14:06:51;99422.42;;;15.83;100.00
23899;BME280;20544;50.018;20.010;2023-05-25T14:10:10;99420.73;;;15.75;100.00
23899;BME280;20544;50.018;20.010;2023-05-25T14:13:26;99408.33;;;15.67;100.00
23899;BME280;20544;50.018;20.010;2023-05-25T14:16:45;99417.20;;;15.68;100.00
23899;BME280;20544;50.018;20.010;2023-05-25T14:20:02;99416.98;;;15.63;100.00
23899;BME280;20544;50.018;20.010;2023-05-25T14:23:22;99411.84;;;15.68;100.00
23899;BME280;20544;50.018;20.010;2023-05-25T14:26:38;99422.75;;;15.66;100.00
23899;BME280;20544;50.018;20.010;2023-05-25T14:29:55;99419.23;;;15.66;100.00
23899;BME280;20544;50.018;20.010;2023-05-25T14:33:11;99423.55;;;15.60;100.00
23899;BME280;20544;50.018;20.010;2023-05-25T14:36:27;99417.56;;;15.58;100.00
23899;BME280;20544;50.018;20.010;2023-05-25T14:39:46;99424.77;;;15.58;100.00
23899;BME280;20544;50.018;20.010;2023-05-25T14:43:02;99415.32;;;15.62;100.00
23899;BME280;20544;50.018;20.010;2023-05-25T14:46:19;99414.30;;;15.63;100.00
23899;BME280;20544;50.018;20.010;2023-05-25T14:49:35;99414.30;;;15.63;100.00
23899;BME280;20544;50.018;20.010;2023-05-25T14:52:52;99407.31;;;15.68;100.00
23899;BME280;20544;50.018;20.010;2023-05-25T14:56:08;99408.95;;;15.63;100.00
23899;BME280;20544;50.018;20.010;2023-05-25T14:59:25;99407.51;;;15.60;100.00
23899;BME280;20544;50.018;20.010;2023-05-25T15:02:41;99407.51;;;15.60;100.00
23899;BME280;20544;50.018;20.010;2023-05-25T15:05:58;99405.27;;;15.64;100.00
23899;BME280;20544;50.018;20.010;2023-05-25T15:09:14;99402.59;;;15.64;100.00
23899;BME280;20544;50.018;20.010;2023-05-25T15:12:31;99402.33;;;15.59;100.00
23899;BME280;20544;50.018;20.010;2023-05-25T15:15:47;99392.48;;;15.59;100.00
23899;BME280;20544;50.018;20.010;2023-05-25T15:19:05;99397.78;;;15.52;100.00
23899;BME280;20544;50.018;20.010;2023-05-25T15:22:24;99393.66;;;15.50;100.00
23899;BME280;20544;50.018;20.010;2023-05-25T15:25:40;99392.27;;;15.54;100.00
23899;BME280;20544;50.018;20.010;2023-05-25T15:28:57;99387.09;;;15.52;100.00
23899;BME280;20544;50.018;20.010;2023-05-25T15:32:13;99398.42;;;15.55;100.00
23899;BME280;20544;50.018;20.010;2023-05-25T15:35:30;99398.22;;;15.56;100.00
23899;BME280;20544;50.018;20.010;2023-05-25T15:38:46;99398.20;;;15.49;100.00
23899;BME280;20544;50.018;20.010;2023-05-25T15:42:04;99385.61;;;15.36;100.00
23899;BME280;20544;50.018;20.010;2023-05-25T15:45:21;99392.53;;;15.24;100.00
23899;BME280;20544;50.018;20.010;2023-05-25T15:48:38;99389.86;;;15.24;100.00
23899;BME280;20544;50.018;20.010;2023-05-25T15:51:54;99390.30;;;15.28;100.00
23899;BME280;20544;50.018;20.010;2023-05-25T15:55:11;99381.87;;;15.31;100.00
23899;BME280;20544;50.018;20.010;2023-05-25T15:58:28;99391.74;;;15.30;100.00
23899;BME280;20544;50.018;20.010;2023-05-25T16:01:47;99387.31;;;15.09;100.00
23899;BME280;20544;50.018;20.010;2023-05-25T16:05:04;99388.91;;;15.03;100.00
23899;BME280;20544;50.018;20.010;2023-05-25T16:08:21;99384.20;;;15.06;100.00
23899;BME280;20544;50.018;20.010;2023-05-25T16:11:38;99386.09;;;15.12;100.00
23899;BME280;20544;50.018;20.010;2023-05-25T16:14:55;99378.89;;;15.12;100.00
23899;BME280;20544;50.018;20.010;2023-05-25T16:18:12;99384.03;;;15.14;100.00
23899;BME280;20544;50.018;20.010;2023-05-25T16:21:28;99385.89;;;15.13;100.00
23899;BME280;20544;50.018;20.010;2023-05-25T16:24:46;99380.45;;;15.00;100.00
23899;BME280;20544;50.018;20.010;2023-05-25T16:28:03;99383.47;;;14.90;100.00
23899;BME280;20544;50.018;20.010;2023-05-25T16:31:19;99386.38;;;14.95;100.00
23899;BME280;20544;50.018;20.010;2023-05-25T16:34:39;99383.70;;;14.95;100.00
23899;BME280;20544;50.018;20.010;2023-05-25T16:37:55;99396.45;;;14.93;100.00
23899;BME280;20544;50.018;20.010;2023-05-25T16:41:12;99389.69;;;14.97;100.00
23899;BME280;20544;50.018;20.010;2023-05-25T16:44:31;99387.86;;;14.98;100.00
23899;BME280;20544;50.018;20.010;2023-05-25T16:47:49;99375.96;;;15.00;100.00
23899;BME280;20544;50.018;20.010;2023-05-25T16:51:06;99377.96;;;14.92;100.00
23899;BME280;20544;50.018;20.010;2023-05-25T16:54:23;99381.01;;;14.88;100.00
23899;BME280;20544;50.018;20.010;2023-05-25T16:57:40;99380.37;;;14.86;100.00
23899;BME280;20544;50.018;20.010;2023-05-25T17:00:57;99377.33;;;14.90;100.00
23899;BME280;20544;50.018;20.010;2023-05-25T17:04:20;99376.68;;;14.87;100.00
23899;BME280;20544;50.018;20.010;2023-05-25T17:07:37;99377.29;;;14.83;100.00